createdAt,value
2024-02-28T00:00:00.548Z,71.00
2024-02-28T00:02:32.810Z,71.13
2024-02-28T00:05:04.870Z,71.13
2024-02-28T00:07:37.174Z,71.27
2024-02-28T00:10:10.754Z,71.18
2024-02-28T00:12:43.748Z,71.42
2024-02-28T00:15:15.871Z,71.41
2024-02-28T00:17:48.024Z,71.51
2024-02-28T00:20:20.077Z,71.36
2024-02-28T00:22:51.979Z,71.25
2024-02-28T00:25:23.964Z,71.18
2024-02-28T00:27:55.919Z,71.39
2024-02-28T00:30:29.960Z,71.75
2024-02-28T00:33:02.578Z,71.68
2024-02-28T00:35:36.788Z,71.68
2024-02-28T00:38:09.669Z,71.60
2024-02-28T00:40:41.577Z,71.71
2024-02-28T00:43:13.861Z,71.89
2024-02-28T00:45:45.874Z,72.11
2024-02-28T00:48:17.919Z,72.24
2024-02-28T00:50:49.879Z,72.46
2024-02-28T00:53:22.537Z,72.58
2024-02-28T00:55:54.468Z,72.57
2024-02-28T00:58:27.772Z,72.48
2024-02-28T01:01:00.865Z,72.35
2024-02-28T01:03:33.542Z,72.48
2024-02-28T01:06:06.204Z,72.46
2024-02-28T01:08:38.097Z,72.56
2024-02-28T01:11:09.996Z,72.57
2024-02-28T01:13:41.888Z,72.84
2024-02-28T01:16:14.108Z,73.06
2024-02-28T01:18:45.997Z,73.06
2024-02-28T01:21:17.991Z,73.31
2024-02-28T01:23:49.905Z,73.31
2024-02-28T01:26:23.359Z,73.29
2024-02-28T01:28:55.239Z,73.56
2024-02-28T01:31:27.196Z,73.53
2024-02-28T01:33:59.173Z,73.73
2024-02-28T01:36:31.224Z,73.77
2024-02-28T01:39:04.484Z,73.74
2024-02-28T01:41:36.404Z,73.93
2024-02-28T01:44:08.672Z,74.05
2024-02-28T01:46:40.654Z,74.16
2024-02-28T01:49:12.918Z,74.01
2024-02-28T01:51:46.750Z,73.92
2024-02-28T01:54:20.608Z,74.02
2024-02-28T01:56:53.019Z,74.14
2024-02-28T01:59:28.676Z,73.97
2024-02-28T02:02:01.062Z,73.97
2024-02-28T02:04:32.965Z,74.14
2024-02-28T02:07:06.178Z,74.12
2024-02-28T02:09:38.385Z,73.93
2024-02-28T02:12:11.376Z,73.72
2024-02-28T02:14:43.829Z,73.58
2024-02-28T02:17:16.046Z,73.85
2024-02-28T02:19:48.048Z,74.01
2024-02-28T02:22:21.334Z,73.90
2024-02-28T02:24:53.253Z,73.72
2024-02-28T02:27:28.572Z,73.71
2024-02-28T02:30:00.848Z,73.48
2024-02-28T02:32:33.142Z,73.39
2024-02-28T02:35:05.570Z,73.43
2024-02-28T02:37:37.598Z,73.59
2024-02-28T02:40:11.599Z,73.48
2024-02-28T02:42:43.499Z,73.39
2024-02-28T02:45:16.162Z,73.07
2024-02-28T02:47:48.241Z,73.24
2024-02-28T02:50:20.829Z,73.18
2024-02-28T02:52:52.837Z,72.95
2024-02-28T02:55:24.684Z,72.98
2024-02-28T02:57:57.065Z,72.91
2024-02-28T03:00:29.200Z,72.99
2024-02-28T03:03:01.191Z,73.16
2024-02-28T03:05:33.090Z,73.37
2024-02-28T03:08:05.956Z,73.46
2024-02-28T03:10:37.767Z,73.25
2024-02-28T03:13:09.729Z,73.35
2024-02-28T03:15:41.657Z,73.43
2024-02-28T03:18:13.893Z,73.33
2024-02-28T03:20:46.139Z,73.43
2024-02-28T03:23:18.275Z,73.72
2024-02-28T03:25:50.269Z,73.60
2024-02-28T03:28:22.158Z,73.73
2024-02-28T03:30:54.212Z,73.72
2024-02-28T03:33:26.622Z,73.54
2024-02-28T03:35:58.518Z,73.60
2024-02-28T03:38:30.398Z,73.59
2024-02-28T03:41:04.308Z,73.53
2024-02-28T03:43:36.192Z,73.53
2024-02-28T03:46:08.203Z,73.46
2024-02-28T03:48:40.107Z,73.35
2024-02-28T03:51:11.983Z,73.46
2024-02-28T03:53:44.380Z,73.23
2024-02-28T03:56:25.925Z,73.28
2024-02-28T03:58:58.178Z,73.08
2024-02-28T04:01:30.093Z,73.38
2024-02-28T04:04:02.248Z,73.35
2024-02-28T04:06:34.112Z,73.05
2024-02-28T04:09:06.056Z,72.92
2024-02-28T04:11:39.191Z,72.63
2024-02-28T04:14:11.237Z,72.67
2024-02-28T04:16:46.924Z,72.73
2024-02-28T04:19:19.093Z,72.40
2024-02-28T04:21:51.025Z,72.57
2024-02-28T04:24:23.046Z,72.31
2024-02-28T04:26:55.505Z,72.11
2024-02-28T04:29:27.460Z,72.57
2024-02-28T04:31:59.348Z,72.46
2024-02-28T04:34:31.331Z,72.81
2024-02-28T04:37:03.201Z,73.03
2024-02-28T04:39:35.108Z,73.24
2024-02-28T04:42:07.760Z,73.53
2024-02-28T04:44:39.770Z,73.51
2024-02-28T04:47:11.672Z,73.41
2024-02-28T04:49:43.585Z,73.59
2024-02-28T04:52:15.493Z,74.02
2024-02-28T04:54:47.481Z,74.38
2024-02-28T04:57:19.460Z,74.43
2024-02-28T04:59:51.434Z,74.74
2024-02-28T05:02:23.836Z,74.70
2024-02-28T05:04:56.253Z,74.54
2024-02-28T05:07:28.120Z,74.90
2024-02-28T05:10:00.058Z,74.94
2024-02-28T05:12:32.007Z,74.93
2024-02-28T05:15:04.067Z,74.59
2024-02-28T05:17:36.074Z,74.50
2024-02-28T05:20:10.541Z,74.98
2024-02-28T05:22:44.916Z,75.13
2024-02-28T05:25:16.886Z,74.97
2024-02-28T05:27:48.804Z,75.22
2024-02-28T05:30:20.941Z,75.13
2024-02-28T05:32:52.901Z,75.40
2024-02-28T05:35:24.845Z,75.35
2024-02-28T05:37:58.584Z,75.41
2024-02-28T05:40:30.485Z,75.80
2024-02-28T05:43:03.357Z,75.87
2024-02-28T05:45:36.037Z,75.58
2024-02-28T05:48:09.057Z,75.60
2024-02-28T05:50:41.480Z,75.52
2024-02-28T05:53:13.408Z,75.90
2024-02-28T05:55:46.972Z,76.04
2024-02-28T05:58:18.876Z,75.73
2024-02-28T06:00:51.054Z,76.08
2024-02-28T06:03:23.199Z,76.12
2024-02-28T06:05:56.710Z,76.52
2024-02-28T06:08:28.598Z,76.63
2024-02-28T06:11:00.546Z,76.49
2024-02-28T06:13:32.476Z,76.63
2024-02-28T06:16:04.872Z,76.87
2024-02-28T06:18:36.932Z,76.92
2024-02-28T06:21:09.094Z,76.62
2024-02-28T06:23:40.959Z,76.84
2024-02-28T06:26:18.269Z,76.89
2024-02-28T06:28:49.108Z,76.83
2024-02-28T06:31:22.152Z,77.09
2024-02-28T06:33:54.002Z,77.31
2024-02-28T06:36:26.014Z,77.24
2024-02-28T06:38:57.923Z,77.33
2024-02-28T06:41:29.837Z,77.17
2024-02-28T06:44:01.751Z,76.98
2024-02-28T06:46:33.768Z,77.17
2024-02-28T06:49:06.123Z,77.35
2024-02-28T06:51:38.889Z,77.45
2024-02-28T06:54:11.636Z,77.36
2024-02-28T06:56:43.548Z,77.77
2024-02-28T06:59:15.454Z,77.68
2024-02-28T07:01:47.481Z,77.63
2024-02-28T07:04:19.425Z,77.78
2024-02-28T07:06:51.991Z,77.77
2024-02-28T07:09:26.884Z,77.83
2024-02-28T07:11:58.887Z,78.13
2024-02-28T07:14:30.909Z,78.10
2024-02-28T07:17:02.806Z,77.90
2024-02-28T07:19:34.669Z,77.75
2024-02-28T07:22:08.402Z,78.23
2024-02-28T07:24:40.303Z,78.03
2024-02-28T07:27:12.294Z,78.08
2024-02-28T07:29:44.171Z,78.07
2024-02-28T07:32:16.098Z,77.68
2024-02-28T07:34:47.987Z,77.82
2024-02-28T07:37:19.955Z,77.93
2024-02-28T07:39:51.861Z,77.65
2024-02-28T07:42:23.837Z,78.09
2024-02-28T07:44:58.258Z,77.97
2024-02-28T07:47:30.399Z,77.92
2024-02-28T07:50:02.328Z,78.08
2024-02-28T07:52:36.758Z,78.10
2024-02-28T07:55:09.962Z,78.07
2024-02-28T07:57:41.927Z,78.02
2024-02-28T08:00:21.676Z,77.68
2024-02-28T08:02:53.660Z,77.73
2024-02-28T08:05:25.609Z,77.81
2024-02-28T08:07:57.517Z,78.01
2024-02-28T08:10:29.678Z,77.96
2024-02-28T08:13:01.677Z,77.80
2024-02-28T08:15:33.597Z,78.02
2024-02-28T08:18:05.906Z,77.99
2024-02-28T08:20:38.359Z,78.05
2024-02-28T08:23:10.867Z,78.29
2024-02-28T08:25:42.745Z,77.94
2024-02-28T08:28:15.064Z,78.31
2024-02-28T08:30:47.188Z,78.00
2024-02-28T08:33:20.907Z,78.01
2024-02-28T08:35:55.141Z,77.84
2024-02-28T08:38:27.182Z,78.23
2024-02-28T08:40:59.156Z,78.13
2024-02-28T08:43:31.095Z,77.90
2024-02-28T08:46:03.053Z,77.43
2024-02-28T08:48:35.416Z,77.37
2024-02-28T08:51:07.894Z,77.66
2024-02-28T08:53:39.806Z,77.60
2024-02-28T08:56:11.681Z,77.59
2024-02-28T08:58:45.648Z,77.36
2024-02-28T09:01:19.203Z,77.34
2024-02-28T09:03:51.712Z,77.32
2024-02-28T09:06:23.758Z,76.99
2024-02-28T09:08:55.654Z,77.09
2024-02-28T09:11:27.561Z,77.03
2024-02-28T09:13:59.502Z,77.01
2024-02-28T09:16:31.443Z,77.01
2024-02-28T09:19:03.449Z,77.10
2024-02-28T09:21:35.505Z,76.84
2024-02-28T09:24:08.698Z,76.85
2024-02-28T09:26:44.647Z,76.96
2024-02-28T09:29:16.628Z,76.74
2024-02-28T09:31:48.493Z,76.49
2024-02-28T09:34:20.712Z,76.37
2024-02-28T09:36:52.676Z,76.60
2024-02-28T09:39:24.844Z,76.48
2024-02-28T09:41:56.800Z,76.56
2024-02-28T09:44:31.126Z,76.41
2024-02-28T09:47:02.982Z,76.58
2024-02-28T09:49:38.392Z,76.33
2024-02-28T09:52:10.483Z,76.31
2024-02-28T09:54:45.109Z,76.08
2024-02-28T09:57:17.461Z,76.22
2024-02-28T09:59:54.653Z,76.31
2024-02-28T10:02:30.406Z,76.26
2024-02-28T10:05:05.373Z,76.37
2024-02-28T10:07:37.582Z,76.12
2024-02-28T10:10:11.704Z,76.02
2024-02-28T10:12:46.698Z,75.85
2024-02-28T10:15:18.691Z,75.60
2024-02-28T10:17:51.264Z,75.71
2024-02-28T10:20:23.184Z,75.68
2024-02-28T10:22:56.293Z,75.68
2024-02-28T10:25:32.191Z,75.47
2024-02-28T10:28:06.838Z,75.42
2024-02-28T10:30:44.479Z,75.17
2024-02-28T10:33:17.361Z,75.57
2024-02-28T10:35:53.241Z,75.59
2024-02-28T10:38:25.459Z,75.60
2024-02-28T10:40:58.000Z,75.55
2024-02-28T10:43:32.035Z,75.12
2024-02-28T10:46:25.462Z,75.00
2024-02-28T10:48:58.683Z,75.40
2024-02-28T10:51:32.958Z,75.38
2024-02-28T10:54:12.997Z,75.51
2024-02-28T10:56:46.228Z,75.43
2024-02-28T10:59:18.171Z,75.43
2024-02-28T11:01:50.313Z,75.30
2024-02-28T11:04:22.700Z,75.58
2024-02-28T11:06:57.448Z,75.71
2024-02-28T11:09:33.577Z,75.73
2024-02-28T11:12:08.675Z,75.83
2024-02-28T11:14:40.612Z,76.06
2024-02-28T11:17:12.680Z,75.99
2024-02-28T11:19:44.595Z,75.92
2024-02-28T11:22:22.481Z,75.88
2024-02-28T11:24:58.335Z,75.72
2024-02-28T11:27:30.819Z,76.05
2024-02-28T11:30:02.973Z,75.88
2024-02-28T11:32:35.145Z,76.19
2024-02-28T11:35:08.114Z,76.31
2024-02-28T11:37:43.412Z,76.02
2024-02-28T11:40:15.826Z,76.01
2024-02-28T11:42:47.767Z,75.99
2024-02-28T11:45:19.930Z,75.62
2024-02-28T11:47:52.177Z,75.85
2024-02-28T11:50:25.508Z,76.07
2024-02-28T11:52:57.639Z,76.32
2024-02-28T11:55:30.218Z,76.56
2024-02-28T11:58:02.314Z,76.19
2024-02-28T12:00:34.478Z,76.50
2024-02-28T12:03:10.348Z,76.69
2024-02-28T12:05:45.441Z,76.42
2024-02-28T12:08:17.702Z,76.25
2024-02-28T12:10:50.011Z,76.39
2024-02-28T12:13:22.436Z,76.94
2024-02-28T12:15:54.335Z,76.65
2024-02-28T12:18:29.588Z,76.72
2024-02-28T12:21:01.838Z,77.00
2024-02-28T12:23:33.796Z,77.22
2024-02-28T12:26:05.814Z,77.23
2024-02-28T12:28:38.022Z,76.89
2024-02-28T12:31:12.974Z,77.38
2024-02-28T12:33:45.011Z,77.18
2024-02-28T12:36:18.121Z,77.34
2024-02-28T12:38:50.044Z,77.17
2024-02-28T12:41:22.093Z,77.50
2024-02-28T12:43:54.110Z,77.42
2024-02-28T12:46:26.058Z,77.03
2024-02-28T12:48:58.037Z,76.89
2024-02-28T12:51:42.983Z,76.95
2024-02-28T12:54:16.475Z,76.85
2024-02-28T12:56:48.499Z,77.07
2024-02-28T12:59:20.755Z,76.85
2024-02-28T13:01:52.884Z,76.52
2024-02-28T13:04:26.934Z,76.26
2024-02-28T13:06:58.855Z,76.46
2024-02-28T13:09:30.854Z,76.41
2024-02-28T13:12:03.127Z,76.45
2024-02-28T13:14:35.387Z,76.60
2024-02-28T13:17:08.932Z,76.46
2024-02-28T13:19:40.998Z,76.08
2024-02-28T13:22:12.961Z,76.27
2024-02-28T13:24:45.269Z,75.94
2024-02-28T13:27:17.309Z,76.17
2024-02-28T13:29:49.790Z,76.16
2024-02-28T13:32:21.934Z,76.42
2024-02-28T13:34:53.991Z,75.98
2024-02-28T13:37:25.893Z,76.25
2024-02-28T13:39:58.432Z,76.26
2024-02-28T13:42:30.597Z,76.33
2024-02-28T13:45:02.531Z,76.50
2024-02-28T13:47:34.469Z,76.24
2024-02-28T13:50:07.952Z,76.57
2024-02-28T13:52:39.888Z,76.64
2024-02-28T13:55:12.556Z,76.77
2024-02-28T13:57:44.555Z,76.86
2024-02-28T14:00:18.869Z,76.37
2024-02-28T14:02:52.183Z,76.38
2024-02-28T14:05:24.091Z,76.07
2024-02-28T14:07:55.939Z,76.14
2024-02-28T14:10:28.000Z,75.90
2024-02-28T14:13:00.316Z,76.35
2024-02-28T14:15:32.329Z,75.99
2024-02-28T14:18:04.619Z,76.21
2024-02-28T14:20:36.789Z,76.15
2024-02-28T14:23:08.790Z,76.45
2024-02-28T14:25:42.859Z,76.20
2024-02-28T14:28:15.333Z,76.15
2024-02-28T14:30:50.621Z,75.82
2024-02-28T14:33:22.803Z,76.33
2024-02-28T14:35:55.199Z,76.40
2024-02-28T14:38:27.031Z,76.43
2024-02-28T14:40:58.963Z,76.15
2024-02-28T14:43:31.651Z,76.44
2024-02-28T14:46:03.629Z,76.11
2024-02-28T14:48:35.748Z,76.11
2024-02-28T14:51:08.725Z,76.18
2024-02-28T14:53:40.614Z,76.25
2024-02-28T14:56:12.501Z,76.25
2024-02-28T14:58:44.535Z,76.17
2024-02-28T15:01:16.789Z,76.26
2024-02-28T15:03:49.787Z,76.47
2024-02-28T15:06:22.233Z,76.59
2024-02-28T15:08:54.158Z,76.80
2024-02-28T15:11:26.460Z,76.86
2024-02-28T15:13:58.505Z,76.53
2024-02-28T15:16:30.391Z,76.48
2024-02-28T15:19:02.324Z,76.77
2024-02-28T15:21:34.679Z,76.44
2024-02-28T15:24:07.068Z,76.19
2024-02-28T15:26:45.944Z,76.37
2024-02-28T15:29:19.486Z,76.56
2024-02-28T15:31:51.699Z,76.40
2024-02-28T15:34:23.615Z,76.81
2024-02-28T15:36:55.801Z,76.72
2024-02-28T15:39:27.723Z,76.92
2024-02-28T15:42:01.748Z,77.10
2024-02-28T15:44:35.356Z,77.27
2024-02-28T15:47:08.103Z,77.04
2024-02-28T15:49:41.481Z,76.87
2024-02-28T15:52:13.953Z,76.91
2024-02-28T15:54:45.959Z,77.22
2024-02-28T15:57:17.999Z,77.26
2024-02-28T15:59:49.833Z,77.44
2024-02-28T16:02:21.750Z,76.89
2024-02-28T16:04:53.611Z,76.96
2024-02-28T16:07:25.626Z,76.83
2024-02-28T16:09:57.940Z,77.06
2024-02-28T16:12:29.956Z,76.89
2024-02-28T16:15:01.795Z,76.94
2024-02-28T16:17:33.797Z,76.82
2024-02-28T16:20:06.587Z,77.22
2024-02-28T16:22:38.524Z,77.04
2024-02-28T16:25:11.705Z,77.06
2024-02-28T16:27:44.746Z,77.23
2024-02-28T16:30:17.232Z,76.83
2024-02-28T16:32:49.516Z,77.10
2024-02-28T16:35:21.719Z,76.94
2024-02-28T16:37:53.652Z,77.14
2024-02-28T16:40:25.845Z,77.01
2024-02-28T16:42:57.974Z,76.92
2024-02-28T16:45:29.866Z,76.72
2024-02-28T16:48:03.402Z,76.58
2024-02-28T16:50:35.273Z,76.77
2024-02-28T16:53:07.614Z,76.74
2024-02-28T16:55:39.470Z,76.62
2024-02-28T16:58:11.453Z,76.23
2024-02-28T17:00:43.391Z,76.84
2024-02-28T17:03:15.373Z,76.53
2024-02-28T17:05:48.888Z,76.63
2024-02-28T17:08:20.765Z,76.44
2024-02-28T17:10:52.632Z,76.94
2024-02-28T17:13:24.537Z,76.95
2024-02-28T17:16:03.692Z,76.89
2024-02-28T17:18:36.633Z,76.78
2024-02-28T17:21:08.803Z,77.10
2024-02-28T17:23:41.848Z,76.77
2024-02-28T17:26:13.909Z,76.63
2024-02-28T17:28:46.313Z,76.43
2024-02-28T17:31:18.323Z,76.94
2024-02-28T17:33:50.560Z,77.24
2024-02-28T17:36:22.490Z,76.76
2024-02-28T17:38:54.472Z,77.02
2024-02-28T17:41:26.355Z,77.23
2024-02-28T17:43:58.499Z,77.01
2024-02-28T17:46:31.072Z,77.20
2024-02-28T17:49:03.045Z,77.36
2024-02-28T17:51:37.444Z,77.23
2024-02-28T17:54:10.148Z,77.37
2024-02-28T17:56:42.687Z,77.41
2024-02-28T17:59:14.561Z,77.38
2024-02-28T18:01:46.560Z,77.21
2024-02-28T18:04:18.834Z,77.47
2024-02-28T18:06:50.784Z,77.57
2024-02-28T18:09:25.637Z,77.44
2024-02-28T18:12:00.046Z,77.48
2024-02-28T18:14:35.270Z,77.39
2024-02-28T18:17:07.743Z,77.87
2024-02-28T18:19:41.930Z,77.29
2024-02-28T18:22:13.843Z,77.41
2024-02-28T18:24:45.822Z,77.28
2024-02-28T18:27:17.936Z,77.33
2024-02-28T18:29:49.929Z,76.96
2024-02-28T18:32:21.794Z,76.80
2024-02-28T18:34:54.102Z,77.22
2024-02-28T18:37:25.969Z,77.48
2024-02-28T18:39:58.344Z,77.17
2024-02-28T18:42:30.276Z,77.05
2024-02-28T18:45:05.699Z,77.05
2024-02-28T18:47:37.603Z,77.20
2024-02-28T18:50:10.800Z,77.41
2024-02-28T18:52:42.642Z,77.05
2024-02-28T18:55:15.184Z,76.91
2024-02-28T18:57:47.085Z,77.19
2024-02-28T19:00:21.045Z,76.88
2024-02-28T19:02:54.921Z,77.20
2024-02-28T19:05:27.003Z,77.22
2024-02-28T19:07:58.886Z,77.01
2024-02-28T19:10:30.795Z,76.99
2024-02-28T19:13:02.823Z,77.27
2024-02-28T19:15:34.909Z,76.70
2024-02-28T19:18:07.547Z,76.88
2024-02-28T19:20:39.492Z,76.99
2024-02-28T19:23:11.879Z,77.18
2024-02-28T19:25:46.922Z,77.10
2024-02-28T19:28:19.445Z,76.87
2024-02-28T19:30:51.372Z,76.98
2024-02-28T19:33:23.225Z,77.09
2024-02-28T19:35:56.078Z,76.90
2024-02-28T19:38:27.905Z,76.93
2024-02-28T19:40:59.793Z,76.61
2024-02-28T19:43:32.339Z,76.10
2024-02-28T19:46:05.608Z,76.19
2024-02-28T19:48:44.523Z,76.31
2024-02-28T19:51:18.052Z,76.54
2024-02-28T19:53:49.998Z,76.07
2024-02-28T19:56:23.547Z,75.90
2024-02-28T19:58:55.504Z,76.42
2024-02-28T20:01:27.557Z,76.13
2024-02-28T20:03:59.818Z,76.24
2024-02-28T20:06:31.863Z,76.26
2024-02-28T20:09:03.810Z,76.35
2024-02-28T20:11:35.796Z,76.63
2024-02-28T20:14:08.830Z,76.08
2024-02-28T20:16:41.372Z,76.45
2024-02-28T20:19:13.420Z,76.30
2024-02-28T20:21:45.532Z,76.26
2024-02-28T20:24:17.425Z,76.40
2024-02-28T20:26:49.428Z,76.52
2024-02-28T20:29:21.291Z,76.08
2024-02-28T20:31:53.244Z,76.36
2024-02-28T20:34:25.177Z,76.08
2024-02-28T20:36:57.584Z,76.42
2024-02-28T20:39:29.481Z,76.24
2024-02-28T20:42:01.422Z,75.99
2024-02-28T20:44:33.309Z,76.29
2024-02-28T20:47:05.556Z,76.29
2024-02-28T20:49:37.830Z,76.22
2024-02-28T20:52:10.012Z,76.10
2024-02-28T20:54:41.945Z,76.34
2024-02-28T20:57:17.080Z,76.30
2024-02-28T20:59:50.753Z,75.89
2024-02-28T21:02:23.230Z,76.50
2024-02-28T21:04:57.000Z,76.71
2024-02-28T21:07:41.107Z,76.54
2024-02-28T21:10:20.288Z,76.60
2024-02-28T21:12:54.146Z,76.65
2024-02-28T21:15:26.366Z,76.71
2024-02-28T21:17:58.433Z,76.73
2024-02-28T21:20:30.967Z,76.75
2024-02-28T21:23:02.846Z,77.19
2024-02-28T21:25:34.730Z,77.55
2024-02-28T21:28:07.067Z,77.72
2024-02-28T21:30:39.515Z,77.59
2024-02-28T21:33:13.425Z,77.41
2024-02-28T21:35:46.557Z,77.76
2024-02-28T21:38:19.164Z,77.67
2024-02-28T21:40:51.058Z,78.06
2024-02-28T21:43:22.924Z,78.36
2024-02-28T21:45:54.830Z,78.34
2024-02-28T21:48:26.987Z,77.98
2024-02-28T21:50:58.944Z,78.26
2024-02-28T21:53:30.817Z,78.30
2024-02-28T21:56:02.848Z,78.54
2024-02-28T21:58:34.727Z,78.43
2024-02-28T22:01:07.147Z,78.70
2024-02-28T22:03:39.121Z,78.69
2024-02-28T22:06:11.702Z,78.42
2024-02-28T22:08:44.802Z,78.40
2024-02-28T22:11:16.814Z,78.62
2024-02-28T22:13:48.733Z,78.82
2024-02-28T22:16:20.620Z,78.65
2024-02-28T22:18:53.055Z,78.41
2024-02-28T22:21:24.957Z,78.45
2024-02-28T22:23:56.926Z,78.89
2024-02-28T22:26:28.895Z,78.63
2024-02-28T22:29:00.817Z,78.63
2024-02-28T22:31:32.767Z,78.69
2024-02-28T22:34:04.877Z,78.82
2024-02-28T22:36:36.767Z,78.84
2024-02-28T22:39:10.871Z,78.61
2024-02-28T22:41:42.814Z,78.68
2024-02-28T22:44:14.766Z,78.57
2024-02-28T22:46:46.762Z,78.87
2024-02-28T22:49:18.833Z,79.51
2024-02-28T22:51:51.245Z,79.50
2024-02-28T22:54:24.921Z,79.02
2024-02-28T22:56:57.189Z,79.35
2024-02-28T22:59:29.263Z,79.68
2024-02-28T23:02:01.228Z,79.33
2024-02-28T23:04:33.306Z,79.66
2024-02-28T23:07:05.666Z,79.15
2024-02-28T23:09:37.659Z,79.68
2024-02-28T23:12:10.591Z,79.69
2024-02-28T23:14:43.090Z,79.13
2024-02-28T23:17:16.236Z,79.73
2024-02-28T23:19:50.324Z,79.69
2024-02-28T23:22:22.294Z,79.82
2024-02-28T23:24:54.280Z,79.84
2024-02-28T23:27:27.572Z,79.58
2024-02-28T23:30:00.981Z,79.76
2024-02-28T23:32:33.270Z,79.46
2024-02-28T23:35:05.820Z,79.79
2024-02-28T23:37:37.979Z,79.50
2024-02-28T23:40:13.183Z,79.85
2024-02-28T23:42:45.116Z,79.69
2024-02-28T23:45:17.262Z,79.92
2024-02-28T23:47:50.014Z,79.95
2024-02-28T23:50:22.028Z,79.50
2024-02-28T23:52:53.905Z,79.57
2024-02-28T23:55:25.981Z,79.79
2024-02-28T23:57:57.915Z,79.89
